Time;durP1;ratioP1;P1;durP2;ratioP2;P2;SDS_P1;SDS_P2;PMS_P1;PMS_P2;Temp;Humidity;BMP_temperature;BMP_pressure;BME280_temperature;BME280_humidity;BME280_pressure;Samples;Min_cycle;Max_cycle;Signal;HPM_P1;HPM_P2
2024/01/08 00:01:19;;;;;;;1.88;1.77;;;-2.40;99.90;;;;;;5012987;28;20233;-77
2024/01/08 00:03:46;;;;;;;2.47;1.80;;;-2.40;99.90;;;;;;5012011;28;20206;-77
2024/01/08 00:06:12;;;;;;;1.92;1.40;;;-2.40;99.90;;;;;;5011408;28;20210;-77
2024/01/08 00:08:39;;;;;;;2.33;1.85;;;-2.40;99.90;;;;;;5011552;28;20270;-77
2024/01/08 00:11:06;;;;;;;1.27;1.17;;;-2.40;99.90;;;;;;5012068;28;20447;-78
2024/01/08 00:13:33;;;;;;;3.35;2.47;;;-2.50;99.90;;;;;;5012370;28;20294;-77
2024/01/08 00:15:59;;;;;;;2.03;1.83;;;-2.50;99.90;;;;;;5010872;28;20230;-77
2024/01/08 00:18:28;;;;;;;1.33;1.15;;;-2.50;99.90;;;;;;5009736;28;20222;-77
2024/01/08 00:20:56;;;;;;;1.05;0.95;;;-2.50;99.90;;;;;;5005233;28;20218;-77
2024/01/08 00:23:22;;;;;;;2.25;1.60;;;-2.50;99.90;;;;;;4995767;28;20204;-77
2024/01/08 00:25:49;;;;;;;1.55;1.45;;;-2.40;99.90;;;;;;4995002;28;20207;-77
2024/01/08 00:28:16;;;;;;;2.20;1.55;;;-2.40;99.90;;;;;;4992829;28;20254;-77
2024/01/08 00:30:43;;;;;;;2.13;1.70;;;-2.40;99.90;;;;;;4992244;28;20210;-77
2024/01/08 00:33:09;;;;;;;1.10;1.00;;;-2.40;99.90;;;;;;4994143;28;20242;-77
2024/01/08 00:35:37;;;;;;;1.90;1.58;;;-2.40;99.90;;;;;;5003846;28;20218;-77
2024/01/08 00:38:04;;;;;;;1.70;1.50;;;-2.40;99.90;;;;;;4990031;28;20212;-77
2024/01/08 00:40:31;;;;;;;1.55;1.45;;;-2.40;99.90;;;;;;4993883;28;20207;-77
2024/01/08 00:42:58;;;;;;;1.10;0.98;;;-2.50;99.90;;;;;;4996164;28;20238;-77
2024/01/08 00:45:25;;;;;;;2.47;1.55;;;-2.50;99.90;;;;;;5004796;28;20211;-77
2024/01/08 00:47:51;;;;;;;1.70;1.60;;;-2.50;99.90;;;;;;4995254;28;20219;-77
2024/01/08 00:50:18;;;;;;;1.93;1.30;;;-2.50;99.90;;;;;;4992646;28;20215;-77
2024/01/08 00:52:46;;;;;;;1.00;0.85;;;-2.40;99.90;;;;;;4999094;28;20235;-77
2024/01/08 00:55:13;;;;;;;2.45;1.75;;;-2.40;99.90;;;;;;4998260;28;20244;-77
2024/01/08 00:57:40;;;;;;;1.95;1.60;;;-2.40;99.90;;;;;;4995266;28;20206;-77
2024/01/08 01:00:08;;;;;;;2.30;2.10;;;-2.50;99.90;;;;;;4991805;28;20210;-77
2024/01/08 01:02:35;;;;;;;2.83;1.88;;;-2.50;99.90;;;;;;4987428;28;20231;-78
2024/01/08 01:05:02;;;;;;;1.40;1.30;;;-2.50;99.90;;;;;;4996811;28;20215;-77
2024/01/08 01:07:29;;;;;;;1.33;1.23;;;-2.50;99.90;;;;;;5008894;28;20217;-77
2024/01/08 01:09:57;;;;;;;1.88;1.77;;;-2.50;99.90;;;;;;5008132;28;20234;-77
2024/01/08 01:12:24;;;;;;;1.48;1.35;;;-2.60;99.90;;;;;;4996120;28;20233;-77
2024/01/08 01:14:51;;;;;;;2.90;1.83;;;-2.60;99.90;;;;;;4990919;28;20217;-77
2024/01/08 01:17:18;;;;;;;1.67;1.45;;;-2.60;99.90;;;;;;4991161;28;20585;-78
2024/01/08 01:19:44;;;;;;;1.88;1.77;;;-2.60;99.90;;;;;;4995642;28;20310;-77
2024/01/08 01:22:11;;;;;;;1.95;1.83;;;-2.60;99.90;;;;;;4991680;28;20226;-78
2024/01/08 01:24:38;;;;;;;1.40;1.30;;;-2.60;99.90;;;;;;4993289;28;20204;-78
2024/01/08 01:27:06;;;;;;;1.58;1.27;;;-2.60;99.90;;;;;;4993118;28;20203;-77
2024/01/08 01:29:33;;;;;;;3.67;1.52;;;-2.60;99.90;;;;;;4993373;28;20206;-77
2024/01/08 01:32:00;;;;;;;1.77;1.50;;;-2.50;99.90;;;;;;4992740;28;20234;-77
2024/01/08 01:34:27;;;;;;;3.03;2.75;;;-2.50;99.90;;;;;;4992898;28;20215;-77
2024/01/08 01:36:54;;;;;;;1.42;1.30;;;-2.50;99.90;;;;;;4992990;28;20215;-77
2024/01/08 01:39:20;;;;;;;1.60;1.50;;;-2.50;99.90;;;;;;4992800;28;20218;-78
2024/01/08 01:41:47;;;;;;;2.90;2.30;;;-2.60;99.90;;;;;;4991944;28;20223;-78
2024/01/08 01:44:15;;;;;;;1.25;1.15;;;-2.60;99.90;;;;;;4992730;28;20680;-77
2024/01/08 01:46:44;;;;;;;1.73;1.23;;;-2.60;99.90;;;;;;4993150;28;20208;-77
2024/01/08 01:49:14;;;;;;;1.42;1.30;;;-2.50;99.90;;;;;;4992651;28;20237;-77
2024/01/08 01:51:42;;;;;;;2.75;1.50;;;-2.50;99.90;;;;;;4992966;28;20233;-77
2024/01/08 01:54:10;;;;;;;1.40;1.27;;;-2.40;99.90;;;;;;4992592;28;20206;-77
2024/01/08 01:56:37;;;;;;;1.23;1.13;;;-2.50;99.90;;;;;;4988511;28;20234;-77
2024/01/08 01:59:05;;;;;;;3.72;1.73;;;-2.50;99.90;;;;;;4992353;28;20692;-77
2024/01/08 02:01:33;;;;;;;1.95;1.75;;;-2.50;99.90;;;;;;4992240;28;20242;-77
2024/01/08 02:04:02;;;;;;;2.65;2.17;;;-2.50;99.90;;;;;;4992783;28;20213;-77
2024/01/08 02:06:30;;;;;;;3.08;1.67;;;-2.50;99.90;;;;;;4992624;28;20265;-78
2024/01/08 02:08:57;;;;;;;1.40;1.30;;;-2.50;99.90;;;;;;4992593;28;20221;-77
2024/01/08 02:11:24;;;;;;;2.55;2.35;;;-2.50;99.90;;;;;;4993221;28;20227;-77
2024/01/08 02:13:50;;;;;;;3.95;2.70;;;-2.50;99.90;;;;;;4992085;28;20222;-78
2024/01/08 02:16:18;;;;;;;1.50;1.40;;;-2.50;99.90;;;;;;4992450;28;20213;-77
2024/01/08 02:18:47;;;;;;;1.75;1.33;;;-2.50;99.90;;;;;;4992568;28;20609;-77
2024/01/08 02:21:14;;;;;;;2.67;1.60;;;-2.50;99.90;;;;;;4992186;28;20226;-77
2024/01/08 02:23:42;;;;;;;2.03;1.85;;;-2.50;99.90;;;;;;4992269;28;20575;-77
2024/01/08 02:26:10;;;;;;;2.75;1.58;;;-2.50;99.90;;;;;;4991955;28;20218;-77
2024/01/08 02:28:37;;;;;;;1.95;1.75;;;-2.50;99.90;;;;;;4987034;28;20298;-77
2024/01/08 02:31:04;;;;;;;1.73;1.25;;;-2.50;99.90;;;;;;4991694;28;20231;-77
2024/01/08 02:33:31;;;;;;;1.60;1.50;;;-2.40;99.90;;;;;;4991742;28;20219;-77
2024/01/08 02:35:58;;;;;;;1.70;1.58;;;-2.40;99.90;;;;;;4991998;28;20214;-77
2024/01/08 02:38:25;;;;;;;2.25;2.05;;;-2.40;99.90;;;;;;4992194;28;20582;-77
2024/01/08 02:40:53;;;;;;;2.55;1.67;;;-2.40;99.90;;;;;;4992090;28;20211;-78
2024/01/08 02:43:20;;;;;;;2.47;1.50;;;-2.50;99.90;;;;;;4991805;28;20585;-77
2024/01/08 02:45:46;;;;;;;1.80;1.55;;;-2.50;99.90;;;;;;4992091;28;20214;-77
2024/01/08 02:48:13;;;;;;;2.03;1.88;;;-2.40;99.90;;;;;;4991328;28;20573;-77
2024/01/08 02:50:41;;;;;;;1.77;1.55;;;-2.50;99.90;;;;;;4994274;28;20593;-78
2024/01/08 02:53:07;;;;;;;1.40;1.30;;;-2.50;99.90;;;;;;4991168;28;20309;-77
2024/01/08 02:55:34;;;;;;;1.35;1.25;;;-2.50;99.90;;;;;;4991692;28;20199;-78
2024/01/08 02:58:06;;;;;;;2.75;1.55;;;-2.50;99.90;;;;;;4993557;28;20206;-77
2024/01/08 03:00:33;;;;;;;3.33;2.28;;;-2.50;99.90;;;;;;4991590;28;20691;-77
2024/01/08 03:02:59;;;;;;;2.88;1.85;;;-2.50;99.90;;;;;;4990907;28;20235;-76
2024/01/08 03:05:26;;;;;;;2.20;1.75;;;-2.50;99.90;;;;;;4991481;28;20199;-77
2024/01/08 03:07:53;;;;;;;1.35;1.25;;;-2.50;99.90;;;;;;4991562;28;20215;-78
2024/01/08 03:10:19;;;;;;;3.90;3.50;;;-2.50;99.90;;;;;;4989512;28;20213;-77
2024/01/08 03:12:46;;;;;;;2.03;1.80;;;-2.50;99.90;;;;;;4991523;28;20601;-77
2024/01/08 03:15:14;;;;;;;1.67;1.48;;;-2.50;99.90;;;;;;4991373;28;20211;-77
2024/01/08 03:17:41;;;;;;;1.35;1.25;;;-2.50;99.90;;;;;;4991845;28;20210;-78
2024/01/08 03:20:09;;;;;;;2.88;1.48;;;-2.50;99.90;;;;;;4991138;28;20207;-77
2024/01/08 03:22:36;;;;;;;2.03;1.92;;;-2.50;99.90;;;;;;4985510;28;20215;-77
2024/01/08 03:25:03;;;;;;;2.17;1.98;;;-2.40;99.90;;;;;;4991404;28;20207;-77
2024/01/08 03:27:30;;;;;;;2.35;2.08;;;-2.40;99.90;;;;;;4993300;28;20215;-77
2024/01/08 03:29:57;;;;;;;2.85;2.00;;;-2.40;99.90;;;;;;4991450;28;20215;-77
2024/01/08 03:32:25;;;;;;;3.03;2.83;;;-2.40;99.90;;;;;;4990724;28;20738;-78
2024/01/08 03:34:52;;;;;;;3.10;1.80;;;-2.40;99.90;;;;;;4991341;28;20211;-77
2024/01/08 03:37:18;;;;;;;1.33;1.23;;;-2.40;99.90;;;;;;4990882;28;20207;-77
2024/01/08 03:39:45;;;;;;;2.47;2.38;;;-2.40;99.90;;;;;;4991163;28;20203;-77
2024/01/08 03:42:12;;;;;;;2.17;1.70;;;-2.40;99.90;;;;;;4990313;28;20226;-77
2024/01/08 03:44:38;;;;;;;1.70;1.60;;;-2.40;99.90;;;;;;4991241;28;20215;-77
2024/01/08 03:47:05;;;;;;;2.45;1.75;;;-2.40;99.90;;;;;;4990920;28;20203;-77
2024/01/08 03:49:33;;;;;;;1.63;1.52;;;-2.50;99.90;;;;;;4993162;28;20661;-77
2024/01/08 03:52:00;;;;;;;2.10;1.90;;;-2.40;99.90;;;;;;4990793;28;20234;-78
2024/01/08 03:54:26;;;;;;;1.42;1.30;;;-2.40;99.90;;;;;;4992447;28;20253;-78
2024/01/08 03:56:53;;;;;;;1.30;1.20;;;-2.40;99.90;;;;;;4991889;28;20218;-78
2024/01/08 03:59:20;;;;;;;2.05;1.90;;;-2.40;99.90;;;;;;4990960;28;20227;-78
2024/01/08 04:01:49;;;;;;;2.33;1.95;;;-2.50;99.90;;;;;;4991817;28;20238;-77
2024/01/08 04:04:15;;;;;;;1.75;1.10;;;-2.50;99.90;;;;;;4992034;28;20298;-78
2024/01/08 04:06:43;;;;;;;1.80;1.70;;;-2.60;99.90;;;;;;4994583;28;20203;-77
2024/01/08 04:09:10;;;;;;;1.27;1.15;;;-2.60;99.90;;;;;;4998099;28;20203;-77
2024/01/08 04:11:37;;;;;;;1.90;1.70;;;-2.50;99.90;;;;;;4995198;28;20238;-77
2024/01/08 04:14:04;;;;;;;1.60;1.45;;;-2.50;99.90;;;;;;4997241;28;20219;-77
2024/01/08 04:16:30;;;;;;;1.40;1.30;;;-2.50;99.90;;;;;;4997485;28;20211;-77
2024/01/08 04:18:57;;;;;;;2.05;1.77;;;-2.50;99.90;;;;;;4996798;28;20215;-77
2024/01/08 04:21:24;;;;;;;6.38;2.13;;;-2.50;99.90;;;;;;4998201;28;20226;-77
2024/01/08 04:23:52;;;;;;;1.70;1.60;;;-2.50;99.90;;;;;;4996661;28;20210;-77
2024/01/08 04:26:20;;;;;;;1.50;1.40;;;-2.50;99.90;;;;;;4997352;28;20207;-78
2024/01/08 04:28:47;;;;;;;1.40;1.30;;;-2.50;99.90;;;;;;4994952;28;20662;-79
2024/01/08 04:31:18;;;;;;;1.15;1.00;;;-2.50;99.90;;;;;;4994763;28;20227;-79
2024/01/08 04:33:45;;;;;;;2.20;2.00;;;-2.50;99.90;;;;;;4993545;28;20265;-79
2024/01/08 04:36:12;;;;;;;1.33;1.23;;;-2.40;99.90;;;;;;4994921;28;20432;-79
2024/01/08 04:38:39;;;;;;;1.75;1.52;;;-2.40;99.90;;;;;;4997304;28;20203;-78
2024/01/08 04:41:07;;;;;;;1.95;1.77;;;-2.30;99.90;;;;;;4997390;28;20246;-77
2024/01/08 04:43:34;;;;;;;2.15;1.70;;;-2.30;99.90;;;;;;4993685;28;20203;-77
2024/01/08 04:46:01;;;;;;;2.03;1.73;;;-2.30;99.90;;;;;;4994068;28;20592;-77
2024/01/08 04:48:28;;;;;;;3.47;1.77;;;-2.40;99.90;;;;;;4993364;28;20594;-77
2024/01/08 04:50:54;;;;;;;1.90;1.55;;;-2.50;99.90;;;;;;4994089;28;20694;-77
2024/01/08 04:53:21;;;;;;;1.30;1.20;;;-2.50;99.90;;;;;;4993219;28;20234;-77
2024/01/08 04:55:48;;;;;;;2.65;2.08;;;-2.50;99.90;;;;;;5001860;28;20218;-77
2024/01/08 04:58:16;;;;;;;1.20;1.10;;;-2.50;99.90;;;;;;4992890;28;20207;-77
2024/01/08 05:00:42;;;;;;;1.38;1.27;;;-2.50;99.90;;;;;;4993806;28;20668;-77
2024/01/08 05:03:09;;;;;;;4.15;2.10;;;-2.50;99.90;;;;;;4993141;28;20219;-77
2024/01/08 05:05:36;;;;;;;1.92;1.67;;;-2.50;99.90;;;;;;4986528;28;20206;-77
2024/01/08 05:08:04;;;;;;;1.90;1.77;;;-2.50;99.90;;;;;;4993567;28;20218;-77
2024/01/08 05:10:30;;;;;;;1.60;1.50;;;-2.40;99.90;;;;;;4992943;28;20215;-77
2024/01/08 05:12:57;;;;;;;2.20;2.00;;;-2.40;99.90;;;;;;4994208;28;20231;-78
2024/01/08 05:15:25;;;;;;;2.13;2.00;;;-2.40;99.90;;;;;;4993579;28;20203;-77
2024/01/08 05:17:52;;;;;;;1.45;1.35;;;-2.40;99.90;;;;;;4992421;28;20594;-77
2024/01/08 05:20:19;;;;;;;1.75;1.65;;;-2.40;99.90;;;;;;4992745;28;20207;-77
2024/01/08 05:22:47;;;;;;;1.65;1.38;;;-2.50;99.90;;;;;;4992999;28;20234;-77
2024/01/08 05:25:13;;;;;;;1.83;1.73;;;-2.40;99.90;;;;;;4992843;28;20210;-77
2024/01/08 05:27:40;;;;;;;1.45;1.35;;;-2.40;99.90;;;;;;4993121;28;20219;-77
2024/01/08 05:30:08;;;;;;;1.35;1.13;;;-2.50;99.90;;;;;;4992765;28;20214;-77
2024/01/08 05:32:36;;;;;;;2.20;1.95;;;-2.50;99.90;;;;;;4986134;28;20597;-77
2024/01/08 05:35:03;;;;;;;2.35;2.15;;;-2.50;99.90;;;;;;4993114;28;20207;-77
2024/01/08 05:37:30;;;;;;;1.85;1.65;;;-2.50;99.90;;;;;;4992720;28;20211;-77
2024/01/08 05:39:56;;;;;;;2.72;2.15;;;-2.50;99.90;;;;;;4992806;28;20213;-77
2024/01/08 05:42:23;;;;;;;2.50;1.42;;;-2.50;99.90;;;;;;4991847;28;20227;-77
2024/01/08 05:44:50;;;;;;;1.83;1.70;;;-2.50;99.90;;;;;;4992778;28;20206;-78
2024/01/08 05:47:17;;;;;;;2.95;2.75;;;-2.50;99.90;;;;;;4992407;28;20474;-77
2024/01/08 05:49:45;;;;;;;1.42;1.33;;;-2.50;99.90;;;;;;4992506;28;20203;-78
2024/01/08 05:52:12;;;;;;;2.20;2.00;;;-2.50;99.90;;;;;;4992098;28;20241;-77
2024/01/08 05:54:38;;;;;;;3.15;2.42;;;-2.50;99.90;;;;;;4992553;28;20246;-77
2024/01/08 05:57:05;;;;;;;2.25;2.05;;;-2.50;99.90;;;;;;4992392;28;20582;-77
2024/01/08 05:59:32;;;;;;;1.30;1.13;;;-2.50;99.90;;;;;;4991940;28;20586;-77
2024/01/08 06:01:59;;;;;;;2.03;1.55;;;-2.50;99.90;;;;;;4991898;28;20235;-77
2024/01/08 06:04:25;;;;;;;1.73;1.33;;;-2.50;99.90;;;;;;4991977;28;20211;-77
2024/01/08 06:06:55;;;;;;;3.17;1.77;;;-2.50;99.90;;;;;;4984468;28;20211;-77
2024/01/08 06:09:21;;;;;;;3.70;1.75;;;-2.50;99.90;;;;;;4991769;28;20293;-77
2024/01/08 06:11:48;;;;;;;2.47;1.90;;;-2.50;99.90;;;;;;4992206;28;20231;-77
2024/01/08 06:14:15;;;;;;;2.50;2.30;;;-2.50;99.90;;;;;;4991922;28;20242;-77
2024/01/08 06:16:41;;;;;;;2.00;1.88;;;-2.50;99.90;;;;;;4992228;28;20207;-77
2024/01/08 06:19:09;;;;;;;4.63;2.45;;;-2.50;99.90;;;;;;4992248;28;20599;-76
2024/01/08 06:21:35;;;;;;;1.15;1.05;;;-2.60;99.90;;;;;;4991300;28;20227;-76
2024/01/08 06:24:04;;;;;;;2.15;1.95;;;-2.70;99.90;;;;;;4992098;28;20210;-77
2024/01/08 06:26:31;;;;;;;1.55;1.42;;;-2.70;99.90;;;;;;4991848;28;20680;-77
2024/01/08 06:28:57;;;;;;;3.72;1.83;;;-2.70;99.90;;;;;;4991517;28;20254;-77
2024/01/08 06:31:24;;;;;;;1.90;1.80;;;-2.70;99.90;;;;;;4991544;28;20230;-77
2024/01/08 06:33:52;;;;;;;1.85;1.60;;;-2.70;99.90;;;;;;4991744;28;20227;-77
2024/01/08 06:36:18;;;;;;;2.47;1.42;;;-2.80;99.90;;;;;;4991684;28;20211;-77
2024/01/08 06:38:46;;;;;;;2.28;2.08;;;-2.70;99.90;;;;;;4991832;28;20211;-77
2024/01/08 06:41:14;;;;;;;1.60;1.38;;;-2.70;99.90;;;;;;4991850;28;20230;-78
2024/01/08 06:43:41;;;;;;;2.22;2.00;;;-2.70;99.90;;;;;;4984297;28;20207;-77
2024/01/08 06:46:08;;;;;;;2.53;2.05;;;-2.70;99.90;;;;;;4992005;28;20210;-77
2024/01/08 06:48:35;;;;;;;2.78;2.28;;;-2.70;99.90;;;;;;4991241;28;20207;-77
2024/01/08 06:51:02;;;;;;;2.28;1.55;;;-2.70;99.90;;;;;;4992045;28;20242;-78
2024/01/08 06:53:29;;;;;;;1.60;1.35;;;-2.70;99.90;;;;;;4991013;28;20226;-77
2024/01/08 06:55:55;;;;;;;2.63;1.65;;;-2.70;99.90;;;;;;4992181;28;20218;-78
2024/01/08 06:58:24;;;;;;;2.47;2.28;;;-2.70;99.90;;;;;;4991338;28;20211;-77
2024/01/08 07:00:50;;;;;;;1.48;1.38;;;-2.70;99.90;;;;;;4991912;28;20215;-77
2024/01/08 07:03:17;;;;;;;2.00;1.30;;;-2.70;99.90;;;;;;5006388;28;20742;-77
2024/01/08 07:05:44;;;;;;;1.63;1.52;;;-2.70;99.90;;;;;;5009969;28;20213;-74
2024/01/08 07:08:11;;;;;;;4.82;2.00;;;-2.80;99.90;;;;;;5009271;28;20565;-75
2024/01/08 07:10:37;;;;;;;2.13;1.50;;;-2.80;99.90;;;;;;5009079;28;20230;-75
2024/01/08 07:13:04;;;;;;;1.42;1.30;;;-2.80;99.90;;;;;;5008959;28;20261;-76
2024/01/08 07:15:40;;;;;;;1.30;1.20;;;-2.90;99.90;;;;;;5007915;28;20226;-75
2024/01/08 07:18:09;;;;;;;2.95;2.22;;;-2.90;99.90;;;;;;5009137;28;20596;-75
2024/01/08 07:20:37;;;;;;;1.50;1.40;;;-2.80;99.90;;;;;;5007947;28;20227;-75
2024/01/08 07:23:04;;;;;;;2.75;1.77;;;-2.80;99.90;;;;;;5004946;28;20230;-75
2024/01/08 07:25:30;;;;;;;1.77;1.65;;;-2.80;99.90;;;;;;5007892;28;20215;-75
2024/01/08 07:27:57;;;;;;;1.63;1.52;;;-2.80;99.90;;;;;;5009993;28;20206;-75
2024/01/08 07:30:24;;;;;;;5.68;2.00;;;-2.70;99.90;;;;;;5007918;28;20229;-75
2024/01/08 07:32:52;;;;;;;2.88;2.28;;;-2.80;99.90;;;;;;5008840;28;20226;-75
2024/01/08 07:35:19;;;;;;;2.38;1.38;;;-2.80;99.90;;;;;;5007874;28;20751;-75
2024/01/08 07:37:45;;;;;;;2.30;1.90;;;-2.70;99.90;;;;;;5004682;28;20225;-75
2024/01/08 07:40:14;;;;;;;1.40;1.30;;;-2.70;99.90;;;;;;5010574;28;20206;-76
2024/01/08 07:42:40;;;;;;;3.15;2.10;;;-2.70;99.90;;;;;;5012252;28;20230;-77
2024/01/08 07:45:08;;;;;;;1.63;1.20;;;-2.70;99.90;;;;;;5012763;28;20206;-76
2024/01/08 07:47:34;;;;;;;1.70;1.60;;;-2.70;99.90;;;;;;5010322;28;20215;-76
2024/01/08 07:50:03;;;;;;;2.13;1.92;;;-2.70;99.90;;;;;;5011971;28;20221;-76
2024/01/08 07:52:29;;;;;;;1.13;1.00;;;-2.70;99.90;;;;;;5010005;28;20284;-76
2024/01/08 07:54:56;;;;;;;2.22;2.03;;;-2.70;99.90;;;;;;5011561;28;20222;-75
2024/01/08 07:57:23;;;;;;;3.08;2.13;;;-2.70;99.90;;;;;;5010084;28;20210;-76
2024/01/08 07:59:49;;;;;;;2.58;1.70;;;-2.70;99.90;;;;;;5011806;28;20206;-76
2024/01/08 08:02:16;;;;;;;1.65;1.55;;;-2.70;99.90;;;;;;5004417;28;20243;-75
2024/01/08 08:04:43;;;;;;;1.40;1.30;;;-2.60;99.90;;;;;;4996275;28;20720;-76
2024/01/08 08:07:11;;;;;;;1.48;1.38;;;-2.60;99.90;;;;;;4997610;28;20210;-76
2024/01/08 08:09:37;;;;;;;2.33;2.00;;;-2.60;99.90;;;;;;4997193;28;20214;-75
2024/01/08 08:12:05;;;;;;;5.30;1.70;;;-2.70;99.90;;;;;;5000480;28;20608;-76
2024/01/08 08:14:31;;;;;;;4.53;2.47;;;-2.70;99.90;;;;;;5000535;28;20227;-75
2024/01/08 08:16:58;;;;;;;2.00;1.52;;;-2.70;99.90;;;;;;5001341;28;20210;-75
2024/01/08 08:19:25;;;;;;;1.60;1.50;;;-2.70;99.90;;;;;;4999642;28;20211;-75
2024/01/08 08:21:52;;;;;;;1.52;1.40;;;-2.60;99.90;;;;;;5000704;28;20260;-76
2024/01/08 08:24:20;;;;;;;2.33;1.70;;;-2.70;99.90;;;;;;5000857;28;20204;-76
2024/01/08 08:26:46;;;;;;;1.67;1.58;;;-2.70;99.90;;;;;;5001547;28;20695;-76
2024/01/08 08:29:13;;;;;;;2.42;2.17;;;-2.70;99.90;;;;;;5000672;28;20215;-76
2024/01/08 08:31:40;;;;;;;3.40;2.40;;;-2.80;99.90;;;;;;5000867;28;20234;-75
2024/01/08 08:34:07;;;;;;;2.42;2.22;;;-2.80;99.90;;;;;;4999917;28;20238;-76
2024/01/08 08:36:33;;;;;;;3.08;2.45;;;-2.80;99.90;;;;;;5000777;28;20214;-74
2024/01/08 08:39:00;;;;;;;1.48;1.38;;;-2.80;99.90;;;;;;5001133;28;20207;-75
2024/01/08 08:41:28;;;;;;;1.90;1.80;;;-2.70;99.90;;;;;;4997108;28;20225;-75
2024/01/08 08:43:55;;;;;;;2.28;2.08;;;-2.70;99.90;;;;;;5003001;28;20208;-74
2024/01/08 08:46:22;;;;;;;1.30;1.20;;;-2.70;99.90;;;;;;5004551;28;20211;-75
2024/01/08 08:48:49;;;;;;;2.50;2.30;;;-2.70;99.90;;;;;;4997328;28;20211;-75
2024/01/08 08:51:16;;;;;;;2.00;1.90;;;-2.60;99.90;;;;;;5004140;28;20233;-75
2024/01/08 08:53:42;;;;;;;4.28;1.80;;;-2.60;99.90;;;;;;5007522;28;20207;-75
2024/01/08 08:56:10;;;;;;;3.10;2.53;;;-2.60;99.90;;;;;;4998857;28;20226;-75
2024/01/08 08:58:38;;;;;;;1.50;1.40;;;-2.60;99.90;;;;;;4995405;28;20203;-74
2024/01/08 09:01:05;;;;;;;3.35;2.25;;;-2.60;99.90;;;;;;5000896;28;20224;-75
2024/01/08 09:03:32;;;;;;;1.77;1.30;;;-2.50;99.90;;;;;;4999045;28;20211;-74
2024/01/08 09:05:58;;;;;;;1.25;1.00;;;-2.50;99.90;;;;;;5001269;28;20200;-74
2024/01/08 09:08:27;;;;;;;2.60;2.40;;;-2.50;99.90;;;;;;5000789;28;20205;-75
2024/01/08 09:10:53;;;;;;;2.35;1.70;;;-2.50;99.90;;;;;;4999144;28;20771;-75
2024/01/08 09:13:20;;;;;;;2.58;1.60;;;-2.50;99.90;;;;;;4999319;28;20213;-74
2024/01/08 09:15:48;;;;;;;1.77;1.67;;;-2.50;99.90;;;;;;4999392;28;20589;-75
2024/01/08 09:18:15;;;;;;;2.42;2.10;;;-2.50;99.90;;;;;;4998792;28;20203;-75
2024/01/08 09:20:42;;;;;;;2.38;1.33;;;-2.40;99.90;;;;;;4998647;28;20214;-74
2024/01/08 09:23:09;;;;;;;2.55;1.85;;;-2.30;99.90;;;;;;5000339;28;20207;-75
2024/01/08 09:25:36;;;;;;;1.92;1.73;;;-2.30;99.90;;;;;;4996857;28;20211;-74
2024/01/08 09:28:02;;;;;;;5.72;2.88;;;-2.30;99.90;;;;;;5000283;28;20199;-75
2024/01/08 09:30:30;;;;;;;2.05;1.85;;;-2.30;99.90;;;;;;5000378;28;20206;-75
2024/01/08 09:32:58;;;;;;;1.77;1.67;;;-2.30;99.90;;;;;;5000317;28;20231;-75
2024/01/08 09:35:25;;;;;;;6.80;2.40;;;-2.30;99.90;;;;;;5000589;28;20219;-74
2024/01/08 09:37:52;;;;;;;2.30;1.88;;;-2.40;99.90;;;;;;4998123;28;20215;-74
2024/01/08 09:40:19;;;;;;;1.90;1.75;;;-2.30;99.90;;;;;;4997286;28;20589;-75
2024/01/08 09:42:46;;;;;;;2.20;1.90;;;-2.30;99.90;;;;;;4997593;28;20591;-75
2024/01/08 09:45:13;;;;;;;2.35;1.60;;;-2.30;99.90;;;;;;4995983;28;20207;-74
2024/01/08 09:47:41;;;;;;;4.00;2.03;;;-2.40;99.90;;;;;;5002139;28;20207;-75
2024/01/08 09:50:10;;;;;;;1.77;1.67;;;-2.40;99.90;;;;;;4996608;28;20242;-74
2024/01/08 09:52:39;;;;;;;1.75;1.65;;;-2.30;99.90;;;;;;4993860;28;20699;-75
2024/01/08 09:55:10;;;;;;;3.80;2.63;;;-2.30;99.90;;;;;;5001499;28;20278;-75
2024/01/08 09:57:37;;;;;;;2.58;2.22;;;-2.30;99.90;;;;;;4989381;28;20258;-74
2024/01/08 10:00:05;;;;;;;2.00;1.65;;;-2.30;99.90;;;;;;4992422;28;20203;-75
2024/01/08 10:02:32;;;;;;;2.28;1.75;;;-2.30;99.90;;;;;;4991307;28;20258;-75
2024/01/08 10:05:01;;;;;;;1.35;1.23;;;-2.20;99.90;;;;;;4992373;28;20572;-75
2024/01/08 10:07:34;;;;;;;3.03;1.95;;;-2.00;99.90;;;;;;4992305;28;20230;-77
2024/01/08 10:10:01;;;;;;;2.80;1.70;;;-2.00;99.90;;;;;;4992176;28;20301;-76
2024/01/08 10:12:29;;;;;;;3.10;1.58;;;-1.90;99.90;;;;;;4996930;28;20642;-75
2024/01/08 10:14:56;;;;;;;1.65;1.55;;;-1.90;99.90;;;;;;4992068;28;20274;-75
2024/01/08 10:17:22;;;;;;;2.33;1.98;;;-2.00;99.90;;;;;;4992364;28;20215;-76
2024/01/08 10:19:50;;;;;;;1.42;1.33;;;-2.10;99.90;;;;;;4991831;28;20207;-76
2024/01/08 10:22:17;;;;;;;2.63;2.05;;;-2.10;99.90;;;;;;4991766;28;20222;-75
2024/01/08 10:24:46;;;;;;;2.60;1.40;;;-2.10;99.90;;;;;;4991880;28;20206;-75
2024/01/08 10:27:13;;;;;;;2.42;1.80;;;-2.10;99.90;;;;;;4991883;28;20237;-76
2024/01/08 10:29:41;;;;;;;1.33;1.15;;;-2.10;99.90;;;;;;4991653;28;20211;-74
2024/01/08 10:32:07;;;;;;;2.22;2.03;;;-2.10;99.90;;;;;;4991582;28;20248;-76
2024/01/08 10:34:36;;;;;;;1.80;1.70;;;-2.10;99.90;;;;;;4992141;28;20267;-76
2024/01/08 10:37:03;;;;;;;2.10;1.90;;;-2.10;99.90;;;;;;4987314;28;20556;-74
2024/01/08 10:39:30;;;;;;;1.60;1.50;;;-2.00;99.90;;;;;;4991722;28;20207;-75
2024/01/08 10:41:58;;;;;;;2.80;1.90;;;-1.90;99.90;;;;;;4991595;28;20300;-74
2024/01/08 10:44:25;;;;;;;1.65;1.55;;;-1.90;99.90;;;;;;4991844;28;20214;-75
2024/01/08 10:46:57;;;;;;;2.28;2.08;;;-1.90;99.90;;;;;;4991687;28;20211;-75
2024/01/08 10:49:31;;;;;;;3.50;1.75;;;-1.80;99.90;;;;;;4991467;28;20688;-75
2024/01/08 10:52:00;;;;;;;2.20;2.00;;;-1.80;99.90;;;;;;4991014;28;20608;-75
2024/01/08 10:54:37;;;;;;;2.55;2.35;;;-1.80;99.90;;;;;;4991714;28;20215;-75
2024/01/08 10:57:11;;;;;;;4.93;3.15;;;-1.90;99.90;;;;;;4991349;28;20739;-75
2024/01/08 10:59:39;;;;;;;2.40;2.15;;;-1.90;99.90;;;;;;4988383;28;20202;-75
2024/01/08 11:02:06;;;;;;;1.42;1.33;;;-1.90;99.90;;;;;;4991445;28;20584;-76
2024/01/08 11:04:33;;;;;;;2.45;1.85;;;-1.90;99.90;;;;;;4987570;28;20293;-75
2024/01/08 11:07:03;;;;;;;2.72;1.50;;;-1.80;99.90;;;;;;4987773;28;20211;-74
2024/01/08 11:09:30;;;;;;;2.45;1.83;;;-1.80;99.90;;;;;;4991228;28;20602;-75
2024/01/08 11:11:57;;;;;;;1.30;1.20;;;-1.70;99.90;;;;;;4990839;28;20230;-75
2024/01/08 11:14:26;;;;;;;2.83;2.63;;;-1.60;99.90;;;;;;4990795;28;20207;-76
2024/01/08 11:16:53;;;;;;;2.17;1.33;;;-1.60;99.90;;;;;;4996196;28;20650;-77
2024/01/08 11:19:27;;;;;;;1.75;1.65;;;-1.60;99.90;;;;;;4995307;28;20703;-75
2024/01/08 11:22:10;;;;;;;2.15;1.95;;;-1.60;99.90;;;;;;4994886;28;20237;-75
2024/01/08 11:24:37;;;;;;;2.70;2.50;;;-1.50;99.90;;;;;;4990591;28;20230;-75
2024/01/08 11:27:04;;;;;;;1.75;1.65;;;-1.50;99.90;;;;;;4994701;28;20280;-75
2024/01/08 11:29:33;;;;;;;2.20;2.00;;;-1.60;99.90;;;;;;4994559;28;20258;-74
2024/01/08 11:32:45;;;;;;;3.63;2.03;;;-1.60;99.90;;;;;;4994507;28;20237;-75
2024/01/08 11:35:13;;;;;;;4.47;2.40;;;-1.50;99.90;;;;;;4967410;28;20242;-75
2024/01/08 11:37:42;;;;;;;1.83;1.70;;;-1.40;99.90;;;;;;4994976;28;20261;-75
2024/01/08 11:40:15;;;;;;;1.38;1.00;;;-1.40;99.90;;;;;;4990584;28;20214;-75
2024/01/08 11:42:43;;;;;;;4.53;2.05;;;-1.30;99.90;;;;;;4991817;28;20654;-75
2024/01/08 11:45:12;;;;;;;1.80;1.65;;;-1.30;99.90;;;;;;4994413;28;20943;-76
2024/01/08 11:47:39;;;;;;;2.03;1.83;;;-1.20;99.90;;;;;;4990881;28;20218;-75
2024/01/08 11:50:07;;;;;;;2.22;2.03;;;-1.20;99.90;;;;;;4993412;28;20213;-75
2024/01/08 11:52:34;;;;;;;2.42;1.75;;;-1.30;99.90;;;;;;4994365;28;20234;-76
2024/01/08 11:55:01;;;;;;;2.30;2.10;;;-1.20;99.90;;;;;;4993910;28;20606;-75
2024/01/08 11:57:28;;;;;;;3.20;2.65;;;-1.00;99.90;;;;;;4994592;28;20611;-75
2024/01/08 11:59:55;;;;;;;4.03;1.55;;;-0.90;99.90;;;;;;4993621;28;20559;-74
2024/01/08 12:02:27;;;;;;;1.48;1.35;;;-0.80;99.90;;;;;;4993904;28;20237;-75
2024/01/08 12:04:54;;;;;;;3.22;3.03;;;-0.80;99.90;;;;;;4994182;28;20219;-75
2024/01/08 12:07:22;;;;;;;1.40;1.30;;;-0.90;99.90;;;;;;4994231;28;20206;-75
2024/01/08 12:09:49;;;;;;;2.38;2.17;;;-0.90;99.90;;;;;;4994254;28;20207;-77
2024/01/08 12:12:17;;;;;;;2.38;1.50;;;-0.90;99.90;;;;;;4994932;28;20629;-75
2024/01/08 12:14:45;;;;;;;1.33;1.20;;;-0.90;99.90;;;;;;4993962;28;20211;-75
2024/01/08 12:17:13;;;;;;;2.15;1.77;;;-0.90;99.90;;;;;;4990620;28;20203;-75
2024/01/08 12:19:44;;;;;;;1.63;1.52;;;-1.00;99.90;;;;;;4993638;28;20230;-75
2024/01/08 12:22:12;;;;;;;2.10;1.90;;;-1.00;99.90;;;;;;4990283;28;20623;-75
2024/01/08 12:24:40;;;;;;;2.63;1.80;;;-0.90;99.90;;;;;;4993749;28;20207;-75
2024/01/08 12:27:08;;;;;;;1.80;1.70;;;-1.00;99.90;;;;;;4992686;28;20208;-74
2024/01/08 12:29:38;;;;;;;2.85;2.33;;;-1.00;99.90;;;;;;4993562;28;20204;-77
2024/01/08 12:32:06;;;;;;;1.98;1.52;;;-1.10;99.90;;;;;;4993443;28;20724;-75
2024/01/08 12:34:36;;;;;;;1.98;1.60;;;-1.20;99.90;;;;;;4993423;28;20207;-75
2024/01/08 12:37:05;;;;;;;2.00;1.70;;;-1.10;99.90;;;;;;4993237;28;20254;-74
2024/01/08 12:39:33;;;;;;;1.80;1.70;;;-1.10;99.90;;;;;;4993246;28;20768;-75
2024/01/08 12:42:02;;;;;;;1.70;1.60;;;-1.10;99.90;;;;;;4992919;28;20235;-74
2024/01/08 12:44:30;;;;;;;2.08;1.70;;;-1.10;99.90;;;;;;4993262;28;20749;-74
2024/01/08 12:46:57;;;;;;;2.35;1.63;;;-1.10;99.90;;;;;;4993155;28;20203;-75
2024/01/08 12:49:24;;;;;;;1.42;1.33;;;-1.10;99.90;;;;;;4993076;28;20211;-75